UAL1754 KSFO-KLAX
Flight info
| Callsign | UAL1754 |
|---|---|
| Flight time | 0h 55m |
| Altitude | 33000 |
| Route | WESLA5 SUSEY EBAYE BURGL IRNMN2 |
| Aircraft | B738/M-SDE2E3FGHIRWXY/LB1 |
Departure
| Time | 2026-04-24 22:17 |
|---|---|
| Airport | San Francisco International Airport (KSFO) |
Arrival
| Time | 2026-04-24 23:12 |
|---|---|
| Airport | Los Angeles International Airport (KLAX) |
| Time | Latitude | Longitude | Altitude | Speed | Heading |
|---|---|---|---|---|---|
| 2026-04-24 21:46 | 37.61771 | -122.38284 | 21 ft | 0 kts | 134° |
| 2026-04-24 22:03 | 37.61779 | -122.38295 | 21 ft | 2 kts | 134° |
| 2026-04-24 22:03 | 37.61790 | -122.38309 | 21 ft | 2 kts | 134° |
| 2026-04-24 22:04 | 37.61801 | -122.38322 | 21 ft | 2 kts | 136° |
| 2026-04-24 22:04 | 37.61808 | -122.38331 | 21 ft | 0 kts | 134° |
| 2026-04-24 22:04 | 37.61811 | -122.38333 | 21 ft | 0 kts | 111° |
| 2026-04-24 22:04 | 37.61809 | -122.38308 | 21 ft | 3 kts | 76° |
| 2026-04-24 22:05 | 37.61824 | -122.38284 | 21 ft | 3 kts | 31° |
| 2026-04-24 22:05 | 37.61863 | -122.38259 | 21 ft | 7 kts | 27° |
| 2026-04-24 22:05 | 37.61894 | -122.38238 | 21 ft | 2 kts | 27° |
| 2026-04-24 22:05 | 37.61897 | -122.38236 | 21 ft | 0 kts | 27° |
| 2026-04-24 22:10 | 37.61898 | -122.38236 | 21 ft | 1 kts | 27° |
| 2026-04-24 22:10 | 37.61917 | -122.38223 | 21 ft | 3 kts | 27° |
| 2026-04-24 22:10 | 37.61955 | -122.38219 | 21 ft | 6 kts | 343° |
| 2026-04-24 22:10 | 37.61988 | -122.38258 | 21 ft | 6 kts | 304° |
| 2026-04-24 22:11 | 37.62014 | -122.38317 | 21 ft | 9 kts | 300° |
| 2026-04-24 22:11 | 37.62070 | -122.38335 | 21 ft | 9 kts | 46° |
| 2026-04-24 22:11 | 37.62062 | -122.38255 | 21 ft | 11 kts | 116° |
| 2026-04-24 22:11 | 37.62015 | -122.38139 | 21 ft | 17 kts | 118° |
| 2026-04-24 22:12 | 37.61941 | -122.37983 | 21 ft | 22 kts | 131° |
| 2026-04-24 22:12 | 37.61827 | -122.37851 | 21 ft | 22 kts | 121° |
| 2026-04-24 22:12 | 37.61770 | -122.37674 | 21 ft | 22 kts | 112° |
| 2026-04-24 22:12 | 37.61712 | -122.37495 | 21 ft | 21 kts | 116° |
| 2026-04-24 22:13 | 37.61642 | -122.37324 | 21 ft | 21 kts | 118° |
| 2026-04-24 22:13 | 37.61570 | -122.37157 | 21 ft | 21 kts | 118° |
| 2026-04-24 22:13 | 37.61500 | -122.36989 | 21 ft | 21 kts | 120° |
| 2026-04-24 22:13 | 37.61407 | -122.36842 | 21 ft | 21 kts | 133° |
| 2026-04-24 22:14 | 37.61326 | -122.36686 | 21 ft | 21 kts | 118° |
| 2026-04-24 22:14 | 37.61256 | -122.36521 | 21 ft | 21 kts | 117° |
| 2026-04-24 22:14 | 37.61187 | -122.36358 | 21 ft | 21 kts | 119° |
| 2026-04-24 22:14 | 37.61121 | -122.36195 | 21 ft | 20 kts | 117° |
| 2026-04-24 22:15 | 37.61057 | -122.36039 | 21 ft | 15 kts | 109° |
| 2026-04-24 22:15 | 37.61085 | -122.35919 | 21 ft | 15 kts | 40° |
| 2026-04-24 22:15 | 37.61172 | -122.35859 | 21 ft | 10 kts | 2° |
| 2026-04-24 22:15 | 37.61207 | -122.35917 | 21 ft | 9 kts | 295° |
| 2026-04-24 22:16 | 37.61272 | -122.36083 | 21 ft | 47 kts | 297° |
| 2026-04-24 22:16 | 37.61528 | -122.36692 | 21 ft | 108 kts | 297° |
| 2026-04-24 22:16 | 37.61959 | -122.37717 | 27 ft | 155 kts | 297° |
| 2026-04-24 22:16 | 37.62486 | -122.38916 | 592 ft | 153 kts | 296° |
| 2026-04-24 22:17 | 37.62973 | -122.40104 | 1145 ft | 158 kts | 296° |
| 2026-04-24 22:17 | 37.63497 | -122.41359 | 1614 ft | 170 kts | 297° |
| 2026-04-24 22:17 | 37.64112 | -122.42759 | 2023 ft | 187 kts | 298° |
| 2026-04-24 22:17 | 37.64754 | -122.44213 | 2553 ft | 198 kts | 299° |
| 2026-04-24 22:18 | 37.65449 | -122.45810 | 2986 ft | 215 kts | 298° |
| 2026-04-24 22:18 | 37.66153 | -122.47514 | 3459 ft | 231 kts | 298° |
| 2026-04-24 22:18 | 37.66930 | -122.49381 | 3966 ft | 245 kts | 293° |
| 2026-04-24 22:18 | 37.67203 | -122.51540 | 4395 ft | 262 kts | 263° |
| 2026-04-24 22:19 | 37.66539 | -122.53693 | 5025 ft | 270 kts | 236° |
| 2026-04-24 22:19 | 37.65200 | -122.55356 | 5680 ft | 276 kts | 215° |
| 2026-04-24 22:19 | 37.63487 | -122.56434 | 6373 ft | 281 kts | 195° |
| 2026-04-24 22:19 | 37.61560 | -122.56504 | 7128 ft | 282 kts | 166° |
| 2026-04-24 22:20 | 37.59773 | -122.55537 | 7910 ft | 283 kts | 150° |
| 2026-04-24 22:20 | 37.58069 | -122.54240 | 8648 ft | 287 kts | 148° |
| 2026-04-24 22:20 | 37.56369 | -122.52907 | 9378 ft | 292 kts | 148° |
| 2026-04-24 22:20 | 37.54634 | -122.51585 | 10170 ft | 295 kts | 149° |
| 2026-04-24 22:21 | 37.52826 | -122.50246 | 10677 ft | 310 kts | 149° |
| 2026-04-24 22:21 | 37.50902 | -122.48846 | 11176 ft | 325 kts | 149° |
| 2026-04-24 22:21 | 37.48956 | -122.47326 | 11599 ft | 341 kts | 143° |
| 2026-04-24 22:21 | 37.47099 | -122.45313 | 12038 ft | 356 kts | 134° |
| 2026-04-24 22:22 | 37.45389 | -122.43023 | 12687 ft | 365 kts | 131° |
| 2026-04-24 22:22 | 37.43698 | -122.40594 | 13464 ft | 370 kts | 129° |
| 2026-04-24 22:22 | 37.42020 | -122.38168 | 14226 ft | 376 kts | 130° |
| 2026-04-24 22:22 | 37.40271 | -122.35681 | 14997 ft | 381 kts | 130° |
| 2026-04-24 22:23 | 37.38477 | -122.33185 | 15733 ft | 387 kts | 131° |
| 2026-04-24 22:23 | 37.36676 | -122.30714 | 16444 ft | 393 kts | 132° |
| 2026-04-24 22:23 | 37.34804 | -122.28172 | 17152 ft | 399 kts | 132° |
| 2026-04-24 22:23 | 37.32918 | -122.25620 | 17802 ft | 405 kts | 133° |
| 2026-04-24 22:24 | 37.30984 | -122.23007 | 18531 ft | 409 kts | 133° |
| 2026-04-24 22:24 | 37.29030 | -122.20370 | 19266 ft | 413 kts | 133° |
| 2026-04-24 22:24 | 37.27067 | -122.17722 | 19950 ft | 417 kts | 134° |
| 2026-04-24 22:24 | 37.25093 | -122.15060 | 20682 ft | 420 kts | 134° |
| 2026-04-24 22:25 | 37.23104 | -122.12379 | 21326 ft | 425 kts | 134° |
| 2026-04-24 22:25 | 37.21076 | -122.09647 | 21978 ft | 429 kts | 134° |
| 2026-04-24 22:25 | 37.19038 | -122.06903 | 22621 ft | 432 kts | 134° |
| 2026-04-24 22:25 | 37.16980 | -122.04134 | 23259 ft | 436 kts | 134° |
| 2026-04-24 22:26 | 37.14922 | -122.01367 | 23834 ft | 440 kts | 134° |
| 2026-04-24 22:26 | 37.12824 | -121.98550 | 24418 ft | 444 kts | 134° |
| 2026-04-24 22:26 | 37.10721 | -121.95727 | 24933 ft | 449 kts | 135° |
| 2026-04-24 22:26 | 37.08567 | -121.92838 | 25469 ft | 454 kts | 135° |
| 2026-04-24 22:27 | 37.06431 | -121.89977 | 25973 ft | 458 kts | 135° |
| 2026-04-24 22:27 | 37.04225 | -121.87023 | 26437 ft | 464 kts | 135° |
| 2026-04-24 22:27 | 37.02018 | -121.84071 | 26939 ft | 468 kts | 135° |
| 2026-04-24 22:27 | 36.99793 | -121.81098 | 27363 ft | 473 kts | 135° |
| 2026-04-24 22:28 | 36.97542 | -121.78092 | 27846 ft | 477 kts | 135° |
| 2026-04-24 22:28 | 36.95246 | -121.75029 | 28382 ft | 479 kts | 135° |
| 2026-04-24 22:28 | 36.92968 | -121.71988 | 29064 ft | 478 kts | 136° |
| 2026-04-24 22:28 | 36.90705 | -121.68971 | 29647 ft | 478 kts | 136° |
| 2026-04-24 22:29 | 36.86136 | -121.62888 | 30748 ft | 478 kts | 136° |
| 2026-04-24 22:29 | 36.83882 | -121.59894 | 31233 ft | 479 kts | 137° |
| 2026-04-24 22:29 | 36.81602 | -121.56866 | 31713 ft | 479 kts | 137° |
| 2026-04-24 22:30 | 36.79312 | -121.53828 | 32223 ft | 479 kts | 137° |
| 2026-04-24 22:30 | 36.77052 | -121.50834 | 32676 ft | 479 kts | 137° |
| 2026-04-24 22:30 | 36.74766 | -121.47810 | 32960 ft | 482 kts | 138° |
| 2026-04-24 22:30 | 36.72453 | -121.44755 | 32960 ft | 481 kts | 138° |
| 2026-04-24 22:31 | 36.67880 | -121.38715 | 32954 ft | 478 kts | 138° |
| 2026-04-24 22:31 | 36.63296 | -121.32675 | 32941 ft | 479 kts | 139° |
| 2026-04-24 22:32 | 36.58715 | -121.26650 | 32933 ft | 480 kts | 139° |
| 2026-04-24 22:32 | 36.54108 | -121.20604 | 32932 ft | 482 kts | 139° |
| 2026-04-24 22:33 | 36.49519 | -121.14588 | 32932 ft | 482 kts | 139° |
| 2026-04-24 22:33 | 36.44912 | -121.08560 | 32939 ft | 481 kts | 139° |
| 2026-04-24 22:34 | 36.40327 | -121.02439 | 32930 ft | 485 kts | 137° |
| 2026-04-24 22:34 | 36.35904 | -120.96090 | 32928 ft | 488 kts | 136° |
| 2026-04-24 22:35 | 36.31537 | -120.89700 | 32926 ft | 485 kts | 136° |
| 2026-04-24 22:35 | 36.27159 | -120.83338 | 32926 ft | 487 kts | 137° |
| 2026-04-24 22:36 | 36.22723 | -120.76952 | 32927 ft | 488 kts | 137° |
| 2026-04-24 22:36 | 36.18293 | -120.70615 | 32928 ft | 488 kts | 137° |
| 2026-04-24 22:37 | 36.13832 | -120.64260 | 32923 ft | 489 kts | 137° |
| 2026-04-24 22:37 | 36.09371 | -120.57919 | 32925 ft | 489 kts | 138° |
| 2026-04-24 22:38 | 36.04929 | -120.51614 | 32932 ft | 489 kts | 138° |
| 2026-04-24 22:38 | 36.00454 | -120.45277 | 32939 ft | 490 kts | 138° |
| 2026-04-24 22:39 | 35.95945 | -120.38905 | 32919 ft | 491 kts | 138° |
| 2026-04-24 22:39 | 35.91466 | -120.32582 | 32910 ft | 489 kts | 139° |
| 2026-04-24 22:40 | 35.86840 | -120.26530 | 32896 ft | 481 kts | 147° |
| 2026-04-24 22:40 | 35.81552 | -120.21658 | 32915 ft | 471 kts | 156° |
| 2026-04-24 22:41 | 35.75993 | -120.17476 | 32909 ft | 466 kts | 159° |
| 2026-04-24 22:41 | 35.71353 | -120.14120 | 32918 ft | 464 kts | 159° |
| 2026-04-24 22:42 | 35.64867 | -120.09393 | 32924 ft | 464 kts | 159° |
| 2026-04-24 22:42 | 35.59330 | -120.05290 | 32927 ft | 465 kts | 158° |
| 2026-04-24 22:43 | 35.53805 | -120.01154 | 32941 ft | 465 kts | 158° |
| 2026-04-24 22:43 | 35.48273 | -119.96995 | 32944 ft | 464 kts | 158° |
| 2026-04-24 22:44 | 35.42810 | -119.92892 | 32941 ft | 463 kts | 159° |
| 2026-04-24 22:44 | 35.37297 | -119.88760 | 32943 ft | 466 kts | 159° |
| 2026-04-24 22:45 | 35.31775 | -119.84625 | 32947 ft | 465 kts | 159° |
| 2026-04-24 22:45 | 35.26282 | -119.80302 | 32951 ft | 470 kts | 154° |
| 2026-04-24 22:46 | 35.21033 | -119.75466 | 32950 ft | 471 kts | 152° |
| 2026-04-24 22:46 | 35.15884 | -119.70509 | 32667 ft | 473 kts | 152° |
| 2026-04-24 22:47 | 35.13305 | -119.68039 | 32407 ft | 473 kts | 152° |
| 2026-04-24 22:47 | 35.10706 | -119.65567 | 32142 ft | 472 kts | 152° |
| 2026-04-24 22:47 | 35.08093 | -119.63103 | 31886 ft | 477 kts | 152° |
| 2026-04-24 22:47 | 35.05469 | -119.60643 | 31624 ft | 476 kts | 151° |
| 2026-04-24 22:48 | 35.02823 | -119.58170 | 31328 ft | 475 kts | 152° |
| 2026-04-24 22:48 | 35.00202 | -119.55726 | 30651 ft | 475 kts | 151° |
| 2026-04-24 22:48 | 34.97586 | -119.53294 | 30083 ft | 471 kts | 151° |
| 2026-04-24 22:48 | 34.95010 | -119.50897 | 29609 ft | 465 kts | 151° |
| 2026-04-24 22:49 | 34.92442 | -119.48508 | 29097 ft | 461 kts | 151° |
| 2026-04-24 22:49 | 34.89981 | -119.46228 | 28866 ft | 451 kts | 151° |
| 2026-04-24 22:49 | 34.87463 | -119.43932 | 28398 ft | 446 kts | 152° |
| 2026-04-24 22:49 | 34.84948 | -119.41677 | 27885 ft | 446 kts | 152° |
| 2026-04-24 22:50 | 34.82467 | -119.39475 | 27371 ft | 446 kts | 152° |
| 2026-04-24 22:50 | 34.79952 | -119.37250 | 26850 ft | 446 kts | 152° |
| 2026-04-24 22:50 | 34.77433 | -119.35021 | 26327 ft | 447 kts | 152° |
| 2026-04-24 22:50 | 34.74908 | -119.32783 | 25797 ft | 447 kts | 152° |
| 2026-04-24 22:51 | 34.72367 | -119.30542 | 25244 ft | 444 kts | 153° |
| 2026-04-24 22:51 | 34.69881 | -119.28363 | 24704 ft | 440 kts | 153° |
| 2026-04-24 22:51 | 34.67397 | -119.26195 | 24172 ft | 436 kts | 152° |
| 2026-04-24 22:51 | 34.64952 | -119.24064 | 23644 ft | 432 kts | 152° |
| 2026-04-24 22:52 | 34.62505 | -119.21942 | 23113 ft | 428 kts | 153° |
| 2026-04-24 22:52 | 34.60119 | -119.19884 | 22613 ft | 424 kts | 152° |
| 2026-04-24 22:52 | 34.57721 | -119.17825 | 22092 ft | 421 kts | 153° |
| 2026-04-24 22:52 | 34.55321 | -119.15762 | 21557 ft | 418 kts | 152° |
| 2026-04-24 22:53 | 34.52969 | -119.13710 | 21027 ft | 415 kts | 151° |
| 2026-04-24 22:53 | 34.50636 | -119.11652 | 20499 ft | 412 kts | 150° |
| 2026-04-24 22:53 | 34.48348 | -119.09621 | 19967 ft | 409 kts | 150° |
| 2026-04-24 22:53 | 34.46057 | -119.07586 | 19434 ft | 405 kts | 150° |
| 2026-04-24 22:54 | 34.43789 | -119.05575 | 18903 ft | 401 kts | 150° |
| 2026-04-24 22:54 | 34.41535 | -119.03593 | 18373 ft | 397 kts | 150° |
| 2026-04-24 22:54 | 34.39309 | -119.01656 | 17846 ft | 394 kts | 150° |
| 2026-04-24 22:54 | 34.37106 | -118.99749 | 17327 ft | 390 kts | 150° |
| 2026-04-24 22:55 | 34.34896 | -118.97842 | 16793 ft | 386 kts | 149° |
| 2026-04-24 22:55 | 34.32729 | -118.95954 | 16276 ft | 383 kts | 148° |
| 2026-04-24 22:55 | 34.30590 | -118.94039 | 15760 ft | 379 kts | 148° |
| 2026-04-24 22:55 | 34.28510 | -118.92145 | 15244 ft | 376 kts | 147° |
| 2026-04-24 22:56 | 34.26428 | -118.90238 | 14729 ft | 373 kts | 147° |
| 2026-04-24 22:56 | 34.24362 | -118.88343 | 14207 ft | 370 kts | 147° |
| 2026-04-24 22:56 | 34.22343 | -118.86481 | 13709 ft | 366 kts | 146° |
| 2026-04-24 22:56 | 34.20333 | -118.84624 | 13257 ft | 356 kts | 146° |
| 2026-04-24 22:57 | 34.18426 | -118.82858 | 13069 ft | 337 kts | 146° |
| 2026-04-24 22:57 | 34.16606 | -118.81171 | 12889 ft | 320 kts | 146° |
| 2026-04-24 22:57 | 34.14922 | -118.79502 | 12522 ft | 315 kts | 142° |
| 2026-04-24 22:57 | 34.13274 | -118.77713 | 12080 ft | 315 kts | 140° |
| 2026-04-24 22:58 | 34.11673 | -118.75919 | 11672 ft | 313 kts | 140° |
| 2026-04-24 22:58 | 34.10095 | -118.74155 | 11271 ft | 311 kts | 140° |
| 2026-04-24 22:58 | 34.08495 | -118.72392 | 10872 ft | 309 kts | 140° |
| 2026-04-24 22:58 | 34.06909 | -118.70657 | 10482 ft | 307 kts | 140° |
| 2026-04-24 22:59 | 34.05320 | -118.68932 | 10075 ft | 306 kts | 140° |
| 2026-04-24 22:59 | 34.03833 | -118.67158 | 9879 ft | 297 kts | 131° |
| 2026-04-24 22:59 | 34.02351 | -118.62637 | 9211 ft | 294 kts | 95° |
| 2026-04-24 23:00 | 34.02208 | -118.60201 | 8834 ft | 292 kts | 93° |
| 2026-04-24 23:00 | 34.02084 | -118.57796 | 8486 ft | 290 kts | 94° |
| 2026-04-24 23:00 | 34.01916 | -118.55376 | 8114 ft | 289 kts | 95° |
| 2026-04-24 23:00 | 34.01709 | -118.52965 | 7767 ft | 286 kts | 96° |
| 2026-04-24 23:01 | 34.01486 | -118.50606 | 7592 ft | 277 kts | 96° |
| 2026-04-24 23:01 | 34.01271 | -118.48363 | 7517 ft | 265 kts | 96° |
| 2026-04-24 23:01 | 34.01088 | -118.46183 | 7430 ft | 254 kts | 92° |
| 2026-04-24 23:01 | 34.01186 | -118.44089 | 7178 ft | 251 kts | 79° |
| 2026-04-24 23:02 | 34.01549 | -118.42025 | 6849 ft | 251 kts | 75° |
| 2026-04-24 23:02 | 34.01963 | -118.39994 | 6551 ft | 250 kts | 75° |
| 2026-04-24 23:02 | 34.02350 | -118.37972 | 6269 ft | 248 kts | 77° |
| 2026-04-24 23:02 | 34.02703 | -118.35950 | 5989 ft | 243 kts | 78° |
| 2026-04-24 23:03 | 34.02961 | -118.33971 | 5681 ft | 239 kts | 83° |
| 2026-04-24 23:03 | 34.03148 | -118.31981 | 5282 ft | 238 kts | 84° |
| 2026-04-24 23:03 | 34.03325 | -118.30007 | 4968 ft | 233 kts | 84° |
| 2026-04-24 23:03 | 34.03509 | -118.28078 | 4704 ft | 227 kts | 84° |
| 2026-04-24 23:04 | 34.03692 | -118.26219 | 4466 ft | 221 kts | 85° |
| 2026-04-24 23:04 | 34.03859 | -118.24410 | 4214 ft | 216 kts | 84° |
| 2026-04-24 23:04 | 34.04047 | -118.22638 | 3968 ft | 211 kts | 83° |
| 2026-04-24 23:04 | 34.04244 | -118.20891 | 3721 ft | 207 kts | 83° |
| 2026-04-24 23:05 | 34.04444 | -118.19196 | 3478 ft | 203 kts | 84° |
| 2026-04-24 23:05 | 34.04643 | -118.17519 | 3233 ft | 200 kts | 83° |
| 2026-04-24 23:05 | 34.04841 | -118.15888 | 3005 ft | 196 kts | 83° |
| 2026-04-24 23:05 | 34.05014 | -118.14307 | 2943 ft | 181 kts | 90° |
| 2026-04-24 23:06 | 34.04667 | -118.12953 | 2960 ft | 173 kts | 136° |
| 2026-04-24 23:06 | 34.03615 | -118.12339 | 2969 ft | 170 kts | 171° |
| 2026-04-24 23:06 | 34.02437 | -118.12116 | 2957 ft | 171 kts | 172° |
| 2026-04-24 23:06 | 34.01246 | -118.11925 | 2950 ft | 174 kts | 178° |
| 2026-04-24 23:07 | 34.00035 | -118.12011 | 2976 ft | 172 kts | 191° |
| 2026-04-24 23:07 | 33.98885 | -118.12424 | 2937 ft | 174 kts | 203° |
| 2026-04-24 23:07 | 33.97832 | -118.13136 | 2960 ft | 170 kts | 215° |
| 2026-04-24 23:07 | 33.96926 | -118.14095 | 2917 ft | 174 kts | 226° |
| 2026-04-24 23:08 | 33.96185 | -118.15241 | 2866 ft | 178 kts | 238° |
| 2026-04-24 23:08 | 33.95757 | -118.16658 | 2806 ft | 182 kts | 259° |
| 2026-04-24 23:08 | 33.95586 | -118.18175 | 2791 ft | 183 kts | 262° |
| 2026-04-24 23:08 | 33.95454 | -118.19693 | 2769 ft | 182 kts | 263° |
| 2026-04-24 23:09 | 33.95363 | -118.21216 | 2697 ft | 181 kts | 265° |
| 2026-04-24 23:09 | 33.95297 | -118.22726 | 2615 ft | 180 kts | 266° |
| 2026-04-24 23:09 | 33.95257 | -118.24225 | 2354 ft | 180 kts | 266° |
| 2026-04-24 23:09 | 33.95167 | -118.25725 | 2154 ft | 175 kts | 260° |
| 2026-04-24 23:10 | 33.94976 | -118.27123 | 2002 ft | 164 kts | 257° |
| 2026-04-24 23:10 | 33.94753 | -118.28464 | 1774 ft | 164 kts | 256° |
| 2026-04-24 23:10 | 33.94584 | -118.29812 | 1557 ft | 159 kts | 263° |
| 2026-04-24 23:10 | 33.94459 | -118.31132 | 1236 ft | 158 kts | 260° |
| 2026-04-24 23:11 | 33.94317 | -118.32397 | 1086 ft | 149 kts | 261° |
| 2026-04-24 23:11 | 33.94206 | -118.33654 | 887 ft | 148 kts | 262° |
| 2026-04-24 23:11 | 33.94092 | -118.34875 | 704 ft | 147 kts | 260° |
| 2026-04-24 23:11 | 33.93949 | -118.36098 | 482 ft | 146 kts | 260° |
| 2026-04-24 23:12 | 33.93830 | -118.37289 | 314 ft | 142 kts | 261° |
| 2026-04-24 23:12 | 33.93714 | -118.38468 | 130 ft | 141 kts | 261° |
| 2026-04-24 23:12 | 33.93612 | -118.39484 | 112 ft | 88 kts | 263° |
| 2026-04-24 23:12 | 33.93568 | -118.39930 | 119 ft | 33 kts | 264° |
| 2026-04-24 23:13 | 33.93573 | -118.40183 | 123 ft | 29 kts | 282° |
| 2026-04-24 23:13 | 33.93618 | -118.40381 | 126 ft | 16 kts | 282° |
| 2026-04-24 23:13 | 33.93618 | -118.40516 | 128 ft | 15 kts | 262° |
| 2026-04-24 23:13 | 33.93603 | -118.40635 | 130 ft | 13 kts | 264° |
| 2026-04-24 23:14 | 33.93595 | -118.40741 | 132 ft | 12 kts | 266° |
| 2026-04-24 23:14 | 33.93602 | -118.40836 | 133 ft | 11 kts | 288° |
| 2026-04-24 23:14 | 33.93654 | -118.40895 | 133 ft | 10 kts | 350° |
| 2026-04-24 23:14 | 33.93727 | -118.40906 | 134 ft | 10 kts | 354° |
| 2026-04-24 23:15 | 33.93796 | -118.40916 | 134 ft | 9 kts | 351° |
| 2026-04-24 23:15 | 33.93861 | -118.40918 | 134 ft | 9 kts | 35° |
| 2026-04-24 23:15 | 33.93876 | -118.40838 | 134 ft | 10 kts | 85° |
| 2026-04-24 23:15 | 33.93884 | -118.40743 | 133 ft | 13 kts | 84° |
| 2026-04-24 23:16 | 33.93899 | -118.40610 | 132 ft | 18 kts | 83° |
| 2026-04-24 23:16 | 33.93916 | -118.40442 | 128 ft | 21 kts | 82° |
| 2026-04-24 23:16 | 33.93930 | -118.40311 | 127 ft | 15 kts | 83° |
| 2026-04-24 23:16 | 33.93944 | -118.40176 | 126 ft | 16 kts | 83° |
| 2026-04-24 23:17 | 33.93970 | -118.40069 | 124 ft | 10 kts | 29° |
| 2026-04-24 23:17 | 33.94035 | -118.40070 | 125 ft | 9 kts | 352° |
| 2026-04-24 23:17 | 33.94096 | -118.40079 | 126 ft | 8 kts | 353° |
| 2026-04-24 23:17 | 33.94149 | -118.40086 | 126 ft | 6 kts | 4° |
| 2026-04-24 23:18 | 33.94161 | -118.40042 | 125 ft | 3 kts | 98° |
| 2026-04-24 23:18 | 33.94159 | -118.40022 | 125 ft | 0 kts | 96° |